Weeping Water, NE (68463)

11:22 PM CDT on March 22, 2017 (GMT -0500)
Gore | | Change Station

Elev 1123 ft 40.84 °N, 96.02 °W | Updated 17 seconds ago

Overcast
Overcast
46.2 °F
Feels Like 43 °F
N
6.3
Wind Variable Wind from SE
Gusts 10.1 mph

Today
High -- | Low -- °F
--% Chance of Precip.
Yesterday
High -- | Low -- °F
Precip. -- in
Pressure 30.16 in
Visibility 10.0 miles
Clouds Scattered Clouds 3900 ft
Scattered Clouds 4500 ft
Overcast 5500 ft
Windchill 43 °F
Dew Point 27 °F
Humidity 47%
Rainfall 0.00 in
Snow Depth Not available.
7:24 AM 7:39 PM
Waning Crescent, 26% visible
METAR KPMV 230415Z AUTO 12012G19KT 10SM SCT039 SCT045 OVC055 08/M06 A3016 RMK AO2 T00751061
Pressure 30.16 in
Visibility 10.0 miles
Clouds Scattered Clouds 3900 ft
Scattered Clouds 4500 ft
Overcast 5500 ft
Windchill 43 °F
Dew Point 27 °F
Humidity 47%
Rainfall 0.00 in
Snow Depth Not available.
7:24 AM 7:39 PM
Waning Crescent, 26% visible
METAR KPMV 230415Z AUTO 12012G19KT 10SM SCT039 SCT045 OVC055 08/M06 A3016 RMK AO2 T00751061

Get Severe Weather Alerts

Thanks for signing up!

Be on the lookout for a verification email in your inbox.

You'll start receiving the daily forecast at 8 AM.

×

10-Day Weather Forecast

Almanac

Astronomy

Mar. 22, 2017 Rise Set
Actual Time
Civil Twilight
Nautical Twilight
Astronomical Twilight
Moon
Length of Visible Light
Length of Day
Tomorrow will be .
, % of the Moon is Illuminated

Today's Extremes

State Highs State Lows

Community

WunderPhotos

Upload Photos

1,962,540 photos uploaded!

WunderBlog® & News

Nearby

Air Quality

  Air Quality AQ Index Pollutant
Not available.

Snow Depth

Station Depth Elevation

Earthquake Activity

City Distance Mag. Time & Date
Minimum magnitude displayed is 2.5.

Earthquake Activity

City Distance Mag. Time & Date
Minimum magnitude displayed is 2.5.

Coastal Water Temperatures

Place Temperature

Stations

Nearby Weather Stations

Station Location Temp. Windchill Dew Point Humidity Wind Precip. Elev Updated Type
                   

Watches & Warnings

There are currently no watches in effect.